sensor_id;sensor_type;location;lat;lon;timestamp;P1;durP1;ratioP1;P2;durP2;ratioP2
60588;SDS011;46421;48.610;9.334;2023-05-07T00:01:31;5.60;;;1.97;;
60588;SDS011;46421;48.610;9.334;2023-05-07T00:03:56;5.60;;;2.38;;
60588;SDS011;46421;48.610;9.334;2023-05-07T00:06:21;4.23;;;2.03;;
60588;SDS011;46421;48.610;9.334;2023-05-07T00:08:47;4.68;;;1.80;;
60588;SDS011;46421;48.610;9.334;2023-05-07T00:11:13;4.60;;;2.50;;
60588;SDS011;46421;48.610;9.334;2023-05-07T00:13:38;5.87;;;2.33;;
60588;SDS011;46421;48.610;9.334;2023-05-07T00:16:03;5.25;;;2.47;;
60588;SDS011;46421;48.610;9.334;2023-05-07T00:18:29;6.55;;;2.38;;
60588;SDS011;46421;48.610;9.334;2023-05-07T00:20:54;6.83;;;2.70;;
60588;SDS011;46421;48.610;9.334;2023-05-07T00:23:19;6.47;;;2.77;;
60588;SDS011;46421;48.610;9.334;2023-05-07T00:25:45;6.33;;;2.90;;
60588;SDS011;46421;48.610;9.334;2023-05-07T00:28:10;4.40;;;2.30;;
60588;SDS011;46421;48.610;9.334;2023-05-07T00:30:35;5.57;;;2.30;;
60588;SDS011;46421;48.610;9.334;2023-05-07T00:33:01;4.93;;;2.22;;
60588;SDS011;46421;48.610;9.334;2023-05-07T00:35:27;7.97;;;2.30;;
60588;SDS011;46421;48.610;9.334;2023-05-07T00:40:18;4.80;;;2.20;;
60588;SDS011;46421;48.610;9.334;2023-05-07T00:42:43;5.75;;;2.40;;
60588;SDS011;46421;48.610;9.334;2023-05-07T00:45:12;4.18;;;2.35;;
60588;SDS011;46421;48.610;9.334;2023-05-07T00:47:37;5.35;;;2.45;;
60588;SDS011;46421;48.610;9.334;2023-05-07T00:50:02;4.63;;;1.97;;
60588;SDS011;46421;48.610;9.334;2023-05-07T00:52:28;3.97;;;1.90;;
60588;SDS011;46421;48.610;9.334;2023-05-07T00:54:54;5.10;;;2.20;;
60588;SDS011;46421;48.610;9.334;2023-05-07T00:57:20;4.85;;;2.60;;
60588;SDS011;46421;48.610;9.334;2023-05-07T00:59:46;4.03;;;2.03;;
60588;SDS011;46421;48.610;9.334;2023-05-07T01:02:11;5.33;;;2.53;;
60588;SDS011;46421;48.610;9.334;2023-05-07T01:04:37;4.60;;;2.40;;
60588;SDS011;46421;48.610;9.334;2023-05-07T01:07:02;6.82;;;2.40;;
60588;SDS011;46421;48.610;9.334;2023-05-07T01:09:28;5.72;;;2.15;;
60588;SDS011;46421;48.610;9.334;2023-05-07T01:11:53;6.22;;;2.58;;
60588;SDS011;46421;48.610;9.334;2023-05-07T01:14:20;8.45;;;2.65;;
60588;SDS011;46421;48.610;9.334;2023-05-07T01:16:45;6.28;;;2.55;;
60588;SDS011;46421;48.610;9.334;2023-05-07T01:19:11;4.97;;;2.63;;
60588;SDS011;46421;48.610;9.334;2023-05-07T01:21:38;5.75;;;2.75;;
60588;SDS011;46421;48.610;9.334;2023-05-07T01:24:05;6.18;;;2.38;;
60588;SDS011;46421;48.610;9.334;2023-05-07T01:26:31;5.53;;;2.50;;
60588;SDS011;46421;48.610;9.334;2023-05-07T01:28:56;4.07;;;1.83;;
60588;SDS011;46421;48.610;9.334;2023-05-07T01:31:21;6.27;;;2.50;;
60588;SDS011;46421;48.610;9.334;2023-05-07T01:33:47;7.78;;;2.42;;
60588;SDS011;46421;48.610;9.334;2023-05-07T01:36:13;7.13;;;3.00;;
60588;SDS011;46421;48.610;9.334;2023-05-07T01:38:39;6.72;;;2.50;;
60588;SDS011;46421;48.610;9.334;2023-05-07T01:41:05;8.25;;;2.22;;
60588;SDS011;46421;48.610;9.334;2023-05-07T01:43:31;4.82;;;2.33;;
60588;SDS011;46421;48.610;9.334;2023-05-07T01:45:57;4.93;;;2.40;;
60588;SDS011;46421;48.610;9.334;2023-05-07T01:48:22;5.15;;;1.88;;
60588;SDS011;46421;48.610;9.334;2023-05-07T01:50:48;5.03;;;2.10;;
60588;SDS011;46421;48.610;9.334;2023-05-07T01:53:14;4.85;;;2.20;;
60588;SDS011;46421;48.610;9.334;2023-05-07T01:55:40;5.15;;;2.40;;
60588;SDS011;46421;48.610;9.334;2023-05-07T01:58:05;6.80;;;2.10;;
60588;SDS011;46421;48.610;9.334;2023-05-07T02:00:30;5.80;;;2.50;;
60588;SDS011;46421;48.610;9.334;2023-05-07T02:02:56;6.78;;;2.20;;
60588;SDS011;46421;48.610;9.334;2023-05-07T02:05:21;6.15;;;2.30;;
60588;SDS011;46421;48.610;9.334;2023-05-07T02:07:46;4.80;;;2.47;;
60588;SDS011;46421;48.610;9.334;2023-05-07T02:10:12;6.43;;;2.50;;
60588;SDS011;46421;48.610;9.334;2023-05-07T02:12:37;4.80;;;2.10;;
60588;SDS011;46421;48.610;9.334;2023-05-07T02:15:02;6.33;;;2.10;;
60588;SDS011;46421;48.610;9.334;2023-05-07T02:17:28;5.47;;;2.20;;
60588;SDS011;46421;48.610;9.334;2023-05-07T02:19:56;5.20;;;2.15;;
60588;SDS011;46421;48.610;9.334;2023-05-07T02:22:21;5.47;;;2.37;;
60588;SDS011;46421;48.610;9.334;2023-05-07T02:24:47;5.63;;;2.03;;
60588;SDS011;46421;48.610;9.334;2023-05-07T02:27:12;5.37;;;2.10;;
60588;SDS011;46421;48.610;9.334;2023-05-07T02:29:37;5.33;;;2.43;;
60588;SDS011;46421;48.610;9.334;2023-05-07T02:32:02;5.90;;;2.37;;
60588;SDS011;46421;48.610;9.334;2023-05-07T02:34:27;5.00;;;2.20;;
60588;SDS011;46421;48.610;9.334;2023-05-07T02:36:53;5.53;;;2.60;;
60588;SDS011;46421;48.610;9.334;2023-05-07T02:39:18;6.80;;;3.40;;
60588;SDS011;46421;48.610;9.334;2023-05-07T02:41:43;5.40;;;2.77;;
60588;SDS011;46421;48.610;9.334;2023-05-07T02:44:08;4.73;;;2.90;;
60588;SDS011;46421;48.610;9.334;2023-05-07T02:46:34;6.25;;;2.53;;
60588;SDS011;46421;48.610;9.334;2023-05-07T02:48:59;5.88;;;2.47;;
60588;SDS011;46421;48.610;9.334;2023-05-07T02:51:25;5.77;;;2.20;;
60588;SDS011;46421;48.610;9.334;2023-05-07T02:53:51;10.48;;;3.10;;
60588;SDS011;46421;48.610;9.334;2023-05-07T02:56:16;6.43;;;2.83;;
60588;SDS011;46421;48.610;9.334;2023-05-07T02:58:41;5.63;;;2.63;;
60588;SDS011;46421;48.610;9.334;2023-05-07T03:01:09;4.88;;;2.20;;
60588;SDS011;46421;48.610;9.334;2023-05-07T03:03:35;5.45;;;2.38;;
60588;SDS011;46421;48.610;9.334;2023-05-07T03:06:00;5.63;;;2.22;;
60588;SDS011;46421;48.610;9.334;2023-05-07T03:08:26;5.72;;;2.40;;
60588;SDS011;46421;48.610;9.334;2023-05-07T03:10:51;3.78;;;1.80;;
60588;SDS011;46421;48.610;9.334;2023-05-07T03:13:16;4.63;;;2.10;;
60588;SDS011;46421;48.610;9.334;2023-05-07T03:15:42;6.28;;;2.20;;
60588;SDS011;46421;48.610;9.334;2023-05-07T03:18:07;3.80;;;1.65;;
60588;SDS011;46421;48.610;9.334;2023-05-07T03:20:33;4.95;;;2.53;;
60588;SDS011;46421;48.610;9.334;2023-05-07T03:22:58;6.55;;;2.20;;
60588;SDS011;46421;48.610;9.334;2023-05-07T03:25:23;5.17;;;2.07;;
60588;SDS011;46421;48.610;9.334;2023-05-07T03:27:49;4.87;;;2.23;;
60588;SDS011;46421;48.610;9.334;2023-05-07T03:30:14;6.00;;;2.53;;
60588;SDS011;46421;48.610;9.334;2023-05-07T03:32:39;4.45;;;2.10;;
60588;SDS011;46421;48.610;9.334;2023-05-07T03:35:05;4.50;;;2.23;;
60588;SDS011;46421;48.610;9.334;2023-05-07T03:37:30;6.07;;;1.85;;
60588;SDS011;46421;48.610;9.334;2023-05-07T03:39:55;5.93;;;2.00;;
60588;SDS011;46421;48.610;9.334;2023-05-07T03:42:21;5.13;;;1.77;;
60588;SDS011;46421;48.610;9.334;2023-05-07T03:44:46;5.45;;;2.20;;
60588;SDS011;46421;48.610;9.334;2023-05-07T03:47:11;5.63;;;1.95;;
60588;SDS011;46421;48.610;9.334;2023-05-07T03:49:38;5.68;;;2.13;;
60588;SDS011;46421;48.610;9.334;2023-05-07T03:52:03;4.23;;;1.57;;
60588;SDS011;46421;48.610;9.334;2023-05-07T03:54:29;6.75;;;2.10;;
60588;SDS011;46421;48.610;9.334;2023-05-07T03:56:54;5.47;;;1.73;;
60588;SDS011;46421;48.610;9.334;2023-05-07T03:59:20;4.07;;;2.10;;
60588;SDS011;46421;48.610;9.334;2023-05-07T04:01:45;6.20;;;2.00;;
60588;SDS011;46421;48.610;9.334;2023-05-07T04:04:10;4.95;;;2.38;;
60588;SDS011;46421;48.610;9.334;2023-05-07T04:06:36;4.57;;;2.10;;
60588;SDS011;46421;48.610;9.334;2023-05-07T04:09:01;5.65;;;2.40;;
60588;SDS011;46421;48.610;9.334;2023-05-07T04:11:26;5.17;;;2.20;;
60588;SDS011;46421;48.610;9.334;2023-05-07T04:13:51;5.97;;;2.30;;
60588;SDS011;46421;48.610;9.334;2023-05-07T04:16:17;6.20;;;2.03;;
60588;SDS011;46421;48.610;9.334;2023-05-07T04:18:42;4.45;;;2.67;;
60588;SDS011;46421;48.610;9.334;2023-05-07T04:21:20;5.03;;;2.03;;
60588;SDS011;46421;48.610;9.334;2023-05-07T04:23:46;5.93;;;2.55;;
60588;SDS011;46421;48.610;9.334;2023-05-07T04:26:12;6.03;;;2.50;;
60588;SDS011;46421;48.610;9.334;2023-05-07T04:28:37;5.70;;;2.10;;
60588;SDS011;46421;48.610;9.334;2023-05-07T04:31:03;6.20;;;2.50;;
60588;SDS011;46421;48.610;9.334;2023-05-07T04:33:28;4.90;;;2.20;;
60588;SDS011;46421;48.610;9.334;2023-05-07T04:35:54;4.93;;;2.50;;
60588;SDS011;46421;48.610;9.334;2023-05-07T04:38:19;6.40;;;2.30;;
60588;SDS011;46421;48.610;9.334;2023-05-07T04:40:44;4.53;;;2.23;;
60588;SDS011;46421;48.610;9.334;2023-05-07T04:43:09;5.87;;;2.20;;
60588;SDS011;46421;48.610;9.334;2023-05-07T04:45:35;5.73;;;2.13;;
60588;SDS011;46421;48.610;9.334;2023-05-07T04:48:00;6.05;;;2.30;;
60588;SDS011;46421;48.610;9.334;2023-05-07T04:50:26;5.13;;;2.83;;
60588;SDS011;46421;48.610;9.334;2023-05-07T04:52:51;5.15;;;2.25;;
60588;SDS011;46421;48.610;9.334;2023-05-07T04:55:16;6.10;;;2.38;;
60588;SDS011;46421;48.610;9.334;2023-05-07T04:57:42;4.43;;;2.22;;
60588;SDS011;46421;48.610;9.334;2023-05-07T05:00:08;4.53;;;2.05;;
60588;SDS011;46421;48.610;9.334;2023-05-07T05:02:34;5.13;;;2.40;;
60588;SDS011;46421;48.610;9.334;2023-05-07T05:05:00;4.30;;;2.05;;
60588;SDS011;46421;48.610;9.334;2023-05-07T05:09:51;5.20;;;2.40;;
60588;SDS011;46421;48.610;9.334;2023-05-07T05:12:17;4.50;;;2.25;;
60588;SDS011;46421;48.610;9.334;2023-05-07T05:14:42;4.23;;;2.20;;
60588;SDS011;46421;48.610;9.334;2023-05-07T05:17:07;4.22;;;2.03;;
60588;SDS011;46421;48.610;9.334;2023-05-07T05:19:33;5.23;;;2.60;;
60588;SDS011;46421;48.610;9.334;2023-05-07T05:21:58;6.23;;;2.83;;
60588;SDS011;46421;48.610;9.334;2023-05-07T05:24:23;4.93;;;2.13;;
60588;SDS011;46421;48.610;9.334;2023-05-07T05:26:49;6.13;;;2.57;;
60588;SDS011;46421;48.610;9.334;2023-05-07T05:29:14;5.23;;;2.47;;
60588;SDS011;46421;48.610;9.334;2023-05-07T05:31:39;5.70;;;2.70;;
60588;SDS011;46421;48.610;9.334;2023-05-07T05:34:06;4.72;;;2.60;;
60588;SDS011;46421;48.610;9.334;2023-05-07T05:36:31;6.13;;;2.50;;
60588;SDS011;46421;48.610;9.334;2023-05-07T05:38:56;5.83;;;2.30;;
60588;SDS011;46421;48.610;9.334;2023-05-07T05:41:22;6.20;;;2.60;;
60588;SDS011;46421;48.610;9.334;2023-05-07T05:43:48;6.13;;;2.90;;
60588;SDS011;46421;48.610;9.334;2023-05-07T05:46:13;5.32;;;2.50;;
60588;SDS011;46421;48.610;9.334;2023-05-07T05:48:38;4.63;;;2.37;;
60588;SDS011;46421;48.610;9.334;2023-05-07T05:51:03;5.20;;;2.43;;
60588;SDS011;46421;48.610;9.334;2023-05-07T05:53:28;5.03;;;2.50;;
60588;SDS011;46421;48.610;9.334;2023-05-07T05:55:54;6.90;;;3.57;;
60588;SDS011;46421;48.610;9.334;2023-05-07T05:58:19;6.78;;;2.33;;
60588;SDS011;46421;48.610;9.334;2023-05-07T06:00:45;5.50;;;2.73;;
60588;SDS011;46421;48.610;9.334;2023-05-07T06:03:10;4.72;;;2.25;;
60588;SDS011;46421;48.610;9.334;2023-05-07T06:05:36;4.75;;;2.28;;
60588;SDS011;46421;48.610;9.334;2023-05-07T06:08:02;6.03;;;2.60;;
60588;SDS011;46421;48.610;9.334;2023-05-07T06:10:27;4.65;;;2.65;;
60588;SDS011;46421;48.610;9.334;2023-05-07T06:12:53;5.03;;;2.47;;
60588;SDS011;46421;48.610;9.334;2023-05-07T06:15:18;5.97;;;2.60;;
60588;SDS011;46421;48.610;9.334;2023-05-07T06:17:43;6.00;;;2.55;;
60588;SDS011;46421;48.610;9.334;2023-05-07T06:20:09;5.50;;;2.40;;
60588;SDS011;46421;48.610;9.334;2023-05-07T06:22:34;4.47;;;2.17;;
60588;SDS011;46421;48.610;9.334;2023-05-07T06:24:59;5.13;;;2.22;;
60588;SDS011;46421;48.610;9.334;2023-05-07T06:27:25;5.07;;;2.20;;
60588;SDS011;46421;48.610;9.334;2023-05-07T06:29:50;5.73;;;2.33;;
60588;SDS011;46421;48.610;9.334;2023-05-07T06:32:15;6.73;;;2.37;;
60588;SDS011;46421;48.610;9.334;2023-05-07T06:34:42;6.18;;;2.38;;
60588;SDS011;46421;48.610;9.334;2023-05-07T06:37:07;5.27;;;2.40;;
60588;SDS011;46421;48.610;9.334;2023-05-07T06:39:32;5.43;;;2.67;;
60588;SDS011;46421;48.610;9.334;2023-05-07T06:41:58;4.43;;;2.10;;
60588;SDS011;46421;48.610;9.334;2023-05-07T06:44:23;5.03;;;2.37;;
60588;SDS011;46421;48.610;9.334;2023-05-07T06:46:49;5.32;;;2.38;;
60588;SDS011;46421;48.610;9.334;2023-05-07T06:49:14;4.23;;;2.03;;
60588;SDS011;46421;48.610;9.334;2023-05-07T06:51:39;5.03;;;2.63;;
60588;SDS011;46421;48.610;9.334;2023-05-07T06:54:05;4.93;;;2.37;;
60588;SDS011;46421;48.610;9.334;2023-05-07T06:56:30;4.88;;;2.40;;
60588;SDS011;46421;48.610;9.334;2023-05-07T06:58:56;4.18;;;2.00;;
60588;SDS011;46421;48.610;9.334;2023-05-07T07:01:21;5.88;;;2.20;;
60588;SDS011;46421;48.610;9.334;2023-05-07T07:03:46;4.60;;;2.20;;
60588;SDS011;46421;48.610;9.334;2023-05-07T07:06:12;4.93;;;2.47;;
60588;SDS011;46421;48.610;9.334;2023-05-07T07:08:37;5.40;;;2.30;;
60588;SDS011;46421;48.610;9.334;2023-05-07T07:11:06;5.70;;;2.25;;
60588;SDS011;46421;48.610;9.334;2023-05-07T07:13:31;4.40;;;1.85;;
60588;SDS011;46421;48.610;9.334;2023-05-07T07:15:57;5.35;;;2.03;;
60588;SDS011;46421;48.610;9.334;2023-05-07T07:18:22;4.40;;;2.30;;
60588;SDS011;46421;48.610;9.334;2023-05-07T07:20:47;4.90;;;2.57;;
60588;SDS011;46421;48.610;9.334;2023-05-07T07:23:13;5.07;;;2.50;;
60588;SDS011;46421;48.610;9.334;2023-05-07T07:25:38;4.90;;;2.10;;
60588;SDS011;46421;48.610;9.334;2023-05-07T07:28:03;3.80;;;1.90;;
60588;SDS011;46421;48.610;9.334;2023-05-07T07:30:28;4.37;;;2.10;;
60588;SDS011;46421;48.610;9.334;2023-05-07T07:32:54;4.40;;;2.33;;
60588;SDS011;46421;48.610;9.334;2023-05-07T07:35:20;6.45;;;2.38;;
60588;SDS011;46421;48.610;9.334;2023-05-07T07:37:45;4.30;;;2.43;;
60588;SDS011;46421;48.610;9.334;2023-05-07T07:40:11;3.93;;;2.20;;
60588;SDS011;46421;48.610;9.334;2023-05-07T07:42:36;4.90;;;2.42;;
60588;SDS011;46421;48.610;9.334;2023-05-07T07:45:02;5.80;;;2.50;;
60588;SDS011;46421;48.610;9.334;2023-05-07T07:47:27;4.40;;;2.28;;
60588;SDS011;46421;48.610;9.334;2023-05-07T07:49:53;5.00;;;2.30;;
60588;SDS011;46421;48.610;9.334;2023-05-07T07:52:18;4.83;;;2.23;;
60588;SDS011;46421;48.610;9.334;2023-05-07T07:54:44;4.90;;;2.35;;
60588;SDS011;46421;48.610;9.334;2023-05-07T07:57:09;4.45;;;2.30;;
60588;SDS011;46421;48.610;9.334;2023-05-07T07:59:34;4.10;;;2.13;;
60588;SDS011;46421;48.610;9.334;2023-05-07T08:02:00;5.40;;;2.20;;
60588;SDS011;46421;48.610;9.334;2023-05-07T08:04:25;4.17;;;1.97;;
60588;SDS011;46421;48.610;9.334;2023-05-07T08:06:53;5.83;;;2.20;;
60588;SDS011;46421;48.610;9.334;2023-05-07T08:09:19;3.97;;;2.35;;
60588;SDS011;46421;48.610;9.334;2023-05-07T08:11:44;4.43;;;2.20;;
60588;SDS011;46421;48.610;9.334;2023-05-07T08:14:10;4.78;;;2.28;;
60588;SDS011;46421;48.610;9.334;2023-05-07T08:16:36;4.80;;;1.92;;
60588;SDS011;46421;48.610;9.334;2023-05-07T08:19:01;5.13;;;2.30;;
60588;SDS011;46421;48.610;9.334;2023-05-07T08:21:26;5.30;;;2.30;;
60588;SDS011;46421;48.610;9.334;2023-05-07T08:23:51;3.33;;;1.90;;
60588;SDS011;46421;48.610;9.334;2023-05-07T08:26:16;4.57;;;2.20;;
60588;SDS011;46421;48.610;9.334;2023-05-07T08:28:42;3.90;;;2.00;;
60588;SDS011;46421;48.610;9.334;2023-05-07T08:31:07;4.67;;;2.40;;
60588;SDS011;46421;48.610;9.334;2023-05-07T08:33:32;4.30;;;2.43;;
60588;SDS011;46421;48.610;9.334;2023-05-07T08:35:58;3.90;;;2.05;;
60588;SDS011;46421;48.610;9.334;2023-05-07T08:38:23;4.60;;;2.40;;
60588;SDS011;46421;48.610;9.334;2023-05-07T08:40:48;4.00;;;2.30;;
60588;SDS011;46421;48.610;9.334;2023-05-07T08:43:14;5.93;;;2.00;;
60588;SDS011;46421;48.610;9.334;2023-05-07T08:45:42;4.60;;;2.35;;
60588;SDS011;46421;48.610;9.334;2023-05-07T08:48:09;4.45;;;2.33;;
60588;SDS011;46421;48.610;9.334;2023-05-07T08:50:35;4.60;;;2.35;;
60588;SDS011;46421;48.610;9.334;2023-05-07T08:53:02;4.03;;;2.17;;
60588;SDS011;46421;48.610;9.334;2023-05-07T08:55:28;3.67;;;1.90;;
60588;SDS011;46421;48.610;9.334;2023-05-07T08:57:54;4.30;;;2.30;;
60588;SDS011;46421;48.610;9.334;2023-05-07T09:00:20;4.10;;;2.20;;
60588;SDS011;46421;48.610;9.334;2023-05-07T09:02:45;4.50;;;2.07;;
60588;SDS011;46421;48.610;9.334;2023-05-07T09:05:10;4.57;;;2.20;;
60588;SDS011;46421;48.610;9.334;2023-05-07T09:07:36;4.45;;;2.60;;
60588;SDS011;46421;48.610;9.334;2023-05-07T09:10:02;3.42;;;2.17;;
60588;SDS011;46421;48.610;9.334;2023-05-07T09:14:52;3.77;;;2.07;;
60588;SDS011;46421;48.610;9.334;2023-05-07T09:17:18;4.28;;;2.38;;
60588;SDS011;46421;48.610;9.334;2023-05-07T09:22:08;3.80;;;2.20;;
60588;SDS011;46421;48.610;9.334;2023-05-07T09:27:06;5.38;;;2.30;;
60588;SDS011;46421;48.610;9.334;2023-05-07T09:29:31;3.83;;;1.88;;
60588;SDS011;46421;48.610;9.334;2023-05-07T09:32:05;4.35;;;1.83;;
60588;SDS011;46421;48.610;9.334;2023-05-07T09:34:31;4.13;;;2.10;;
60588;SDS011;46421;48.610;9.334;2023-05-07T09:39:22;4.55;;;2.13;;
60588;SDS011;46421;48.610;9.334;2023-05-07T09:41:48;4.32;;;2.30;;
60588;SDS011;46421;48.610;9.334;2023-05-07T09:44:14;4.25;;;2.03;;
60588;SDS011;46421;48.610;9.334;2023-05-07T09:49:06;3.30;;;1.90;;
60588;SDS011;46421;48.610;9.334;2023-05-07T09:51:39;4.50;;;1.83;;
60588;SDS011;46421;48.610;9.334;2023-05-07T09:54:06;3.65;;;1.50;;
60588;SDS011;46421;48.610;9.334;2023-05-07T09:59:00;3.27;;;1.60;;
60588;SDS011;46421;48.610;9.334;2023-05-07T10:01:25;3.22;;;1.83;;
60588;SDS011;46421;48.610;9.334;2023-05-07T10:03:52;3.35;;;1.70;;
60588;SDS011;46421;48.610;9.334;2023-05-07T10:08:43;3.75;;;1.98;;
60588;SDS011;46421;48.610;9.334;2023-05-07T10:11:08;4.53;;;1.88;;
60588;SDS011;46421;48.610;9.334;2023-05-07T10:16:01;4.65;;;1.88;;
60588;SDS011;46421;48.610;9.334;2023-05-07T10:20:54;3.35;;;1.75;;
60588;SDS011;46421;48.610;9.334;2023-05-07T10:23:24;3.50;;;1.83;;
60588;SDS011;46421;48.610;9.334;2023-05-07T10:28:15;3.50;;;1.83;;
60588;SDS011;46421;48.610;9.334;2023-05-07T10:33:06;3.50;;;1.83;;
60588;SDS011;46421;48.610;9.334;2023-05-07T10:35:40;3.47;;;1.80;;
60588;SDS011;46421;48.610;9.334;2023-05-07T10:38:06;3.95;;;2.00;;
60588;SDS011;46421;48.610;9.334;2023-05-07T10:43:00;3.40;;;1.88;;
60588;SDS011;46421;48.610;9.334;2023-05-07T10:45:26;4.32;;;1.60;;
60588;SDS011;46421;48.610;9.334;2023-05-07T10:57:42;3.20;;;1.73;;
60588;SDS011;46421;48.610;9.334;2023-05-07T11:05:20;3.80;;;1.75;;
60588;SDS011;46421;48.610;9.334;2023-05-07T11:07:55;3.67;;;1.90;;
60588;SDS011;46421;48.610;9.334;2023-05-07T11:10:21;2.90;;;1.70;;
60588;SDS011;46421;48.610;9.334;2023-05-07T11:15:12;3.78;;;1.42;;
60588;SDS011;46421;48.610;9.334;2023-05-07T11:17:53;3.60;;;1.63;;
60588;SDS011;46421;48.610;9.334;2023-05-07T11:20:19;3.83;;;1.70;;
60588;SDS011;46421;48.610;9.334;2023-05-07T11:22:45;4.20;;;1.60;;
60588;SDS011;46421;48.610;9.334;2023-05-07T11:27:36;3.70;;;1.60;;
60588;SDS011;46421;48.610;9.334;2023-05-07T11:30:01;2.90;;;1.50;;
60588;SDS011;46421;48.610;9.334;2023-05-07T11:34:52;4.43;;;1.60;;
60588;SDS011;46421;48.610;9.334;2023-05-07T11:39:43;3.40;;;1.70;;
60588;SDS011;46421;48.610;9.334;2023-05-07T11:44:43;3.45;;;1.70;;
60588;SDS011;46421;48.610;9.334;2023-05-07T11:47:10;2.75;;;1.52;;
60588;SDS011;46421;48.610;9.334;2023-05-07T11:49:35;4.20;;;1.65;;
60588;SDS011;46421;48.610;9.334;2023-05-07T11:52:00;3.13;;;1.35;;
60588;SDS011;46421;48.610;9.334;2023-05-07T11:54:26;2.97;;;1.50;;
60588;SDS011;46421;48.610;9.334;2023-05-07T11:56:51;3.08;;;1.20;;
60588;SDS011;46421;48.610;9.334;2023-05-07T11:59:17;4.53;;;1.50;;
60588;SDS011;46421;48.610;9.334;2023-05-07T12:01:44;2.97;;;1.33;;
60588;SDS011;46421;48.610;9.334;2023-05-07T12:04:13;4.00;;;1.52;;
60588;SDS011;46421;48.610;9.334;2023-05-07T12:06:38;6.43;;;1.50;;
60588;SDS011;46421;48.610;9.334;2023-05-07T12:09:04;5.20;;;1.30;;
60588;SDS011;46421;48.610;9.334;2023-05-07T12:11:32;2.70;;;1.20;;
60588;SDS011;46421;48.610;9.334;2023-05-07T12:13:57;3.50;;;1.30;;
60588;SDS011;46421;48.610;9.334;2023-05-07T12:16:22;5.77;;;1.23;;
60588;SDS011;46421;48.610;9.334;2023-05-07T12:18:48;2.13;;;1.08;;
60588;SDS011;46421;48.610;9.334;2023-05-07T12:21:13;2.40;;;1.05;;
60588;SDS011;46421;48.610;9.334;2023-05-07T12:23:39;2.05;;;1.00;;
60588;SDS011;46421;48.610;9.334;2023-05-07T12:26:04;4.03;;;1.40;;
60588;SDS011;46421;48.610;9.334;2023-05-07T12:28:30;3.30;;;1.47;;
60588;SDS011;46421;48.610;9.334;2023-05-07T12:30:56;3.90;;;1.50;;
60588;SDS011;46421;48.610;9.334;2023-05-07T12:33:25;3.80;;;1.77;;
60588;SDS011;46421;48.610;9.334;2023-05-07T12:35:52;4.20;;;1.67;;
60588;SDS011;46421;48.610;9.334;2023-05-07T12:38:17;4.95;;;1.90;;
60588;SDS011;46421;48.610;9.334;2023-05-07T12:40:44;4.35;;;1.85;;
60588;SDS011;46421;48.610;9.334;2023-05-07T12:43:17;4.47;;;1.90;;
60588;SDS011;46421;48.610;9.334;2023-05-07T12:45:46;4.47;;;2.13;;
60588;SDS011;46421;48.610;9.334;2023-05-07T12:48:12;3.80;;;1.58;;
60588;SDS011;46421;48.610;9.334;2023-05-07T12:50:37;5.35;;;1.77;;
60588;SDS011;46421;48.610;9.334;2023-05-07T12:53:03;4.30;;;1.80;;
60588;SDS011;46421;48.610;9.334;2023-05-07T12:55:31;5.00;;;1.80;;
60588;SDS011;46421;48.610;9.334;2023-05-07T12:57:56;5.15;;;1.88;;
60588;SDS011;46421;48.610;9.334;2023-05-07T13:00:35;4.68;;;1.55;;
60588;SDS011;46421;48.610;9.334;2023-05-07T13:03:00;5.05;;;1.90;;
60588;SDS011;46421;48.610;9.334;2023-05-07T13:05:26;3.65;;;1.98;;
60588;SDS011;46421;48.610;9.334;2023-05-07T13:07:57;4.77;;;1.80;;
60588;SDS011;46421;48.610;9.334;2023-05-07T13:10:23;5.13;;;2.10;;
60588;SDS011;46421;48.610;9.334;2023-05-07T13:12:49;4.40;;;1.80;;
60588;SDS011;46421;48.610;9.334;2023-05-07T13:15:14;4.88;;;1.75;;
60588;SDS011;46421;48.610;9.334;2023-05-07T13:17:39;4.83;;;1.70;;
60588;SDS011;46421;48.610;9.334;2023-05-07T13:20:05;4.57;;;1.40;;
60588;SDS011;46421;48.610;9.334;2023-05-07T13:22:31;3.25;;;1.40;;
60588;SDS011;46421;48.610;9.334;2023-05-07T13:24:56;4.25;;;1.42;;
60588;SDS011;46421;48.610;9.334;2023-05-07T13:27:22;5.63;;;1.60;;
60588;SDS011;46421;48.610;9.334;2023-05-07T13:29:47;5.27;;;1.63;;
60588;SDS011;46421;48.610;9.334;2023-05-07T13:32:12;3.83;;;1.10;;
60588;SDS011;46421;48.610;9.334;2023-05-07T13:34:37;2.47;;;1.10;;
60588;SDS011;46421;48.610;9.334;2023-05-07T13:37:02;3.87;;;1.30;;
60588;SDS011;46421;48.610;9.334;2023-05-07T13:39:28;2.90;;;1.20;;
60588;SDS011;46421;48.610;9.334;2023-05-07T13:41:53;3.70;;;1.30;;
60588;SDS011;46421;48.610;9.334;2023-05-07T13:44:18;2.13;;;1.00;;
60588;SDS011;46421;48.610;9.334;2023-05-07T13:46:43;4.30;;;1.20;;
60588;SDS011;46421;48.610;9.334;2023-05-07T13:49:09;4.50;;;1.50;;
60588;SDS011;46421;48.610;9.334;2023-05-07T13:51:36;2.65;;;1.10;;
60588;SDS011;46421;48.610;9.334;2023-05-07T13:54:01;6.23;;;1.93;;
60588;SDS011;46421;48.610;9.334;2023-05-07T13:56:26;4.67;;;1.50;;
60588;SDS011;46421;48.610;9.334;2023-05-07T13:58:53;3.65;;;1.60;;
60588;SDS011;46421;48.610;9.334;2023-05-07T14:01:18;4.50;;;1.87;;
60588;SDS011;46421;48.610;9.334;2023-05-07T14:03:43;4.90;;;1.80;;
60588;SDS011;46421;48.610;9.334;2023-05-07T14:06:08;5.47;;;2.13;;
60588;SDS011;46421;48.610;9.334;2023-05-07T14:08:34;6.37;;;2.23;;
60588;SDS011;46421;48.610;9.334;2023-05-07T14:10:59;3.97;;;1.53;;
60588;SDS011;46421;48.610;9.334;2023-05-07T14:13:24;5.00;;;1.48;;
60588;SDS011;46421;48.610;9.334;2023-05-07T14:15:50;4.20;;;1.65;;
60588;SDS011;46421;48.610;9.334;2023-05-07T14:18:15;3.43;;;1.40;;
60588;SDS011;46421;48.610;9.334;2023-05-07T14:20:41;4.30;;;1.43;;
60588;SDS011;46421;48.610;9.334;2023-05-07T14:23:08;2.88;;;1.08;;
60588;SDS011;46421;48.610;9.334;2023-05-07T14:25:33;5.07;;;1.63;;
60588;SDS011;46421;48.610;9.334;2023-05-07T14:27:59;4.23;;;1.70;;
60588;SDS011;46421;48.610;9.334;2023-05-07T14:30:24;3.47;;;1.63;;
60588;SDS011;46421;48.610;9.334;2023-05-07T14:32:49;4.27;;;1.90;;
60588;SDS011;46421;48.610;9.334;2023-05-07T14:35:15;5.43;;;2.13;;
60588;SDS011;46421;48.610;9.334;2023-05-07T14:37:40;5.50;;;2.27;;
60588;SDS011;46421;48.610;9.334;2023-05-07T14:40:05;5.30;;;2.40;;
60588;SDS011;46421;48.610;9.334;2023-05-07T14:42:31;5.78;;;2.28;;
60588;SDS011;46421;48.610;9.334;2023-05-07T14:44:59;4.70;;;1.70;;
60588;SDS011;46421;48.610;9.334;2023-05-07T14:47:24;4.43;;;1.75;;
60588;SDS011;46421;48.610;9.334;2023-05-07T14:49:50;3.60;;;1.70;;
60588;SDS011;46421;48.610;9.334;2023-05-07T14:52:15;5.37;;;1.90;;
60588;SDS011;46421;48.610;9.334;2023-05-07T14:54:40;4.50;;;2.00;;
60588;SDS011;46421;48.610;9.334;2023-05-07T14:57:06;5.32;;;2.10;;
60588;SDS011;46421;48.610;9.334;2023-05-07T14:59:31;5.05;;;1.73;;
60588;SDS011;46421;48.610;9.334;2023-05-07T15:01:57;4.87;;;1.90;;
60588;SDS011;46421;48.610;9.334;2023-05-07T15:04:23;4.63;;;1.98;;
60588;SDS011;46421;48.610;9.334;2023-05-07T15:06:48;6.63;;;2.03;;
60588;SDS011;46421;48.610;9.334;2023-05-07T15:09:13;4.43;;;1.93;;
60588;SDS011;46421;48.610;9.334;2023-05-07T15:11:39;4.67;;;1.93;;
60588;SDS011;46421;48.610;9.334;2023-05-07T15:14:04;4.83;;;2.13;;
60588;SDS011;46421;48.610;9.334;2023-05-07T15:16:29;7.13;;;2.37;;
60588;SDS011;46421;48.610;9.334;2023-05-07T15:18:54;6.60;;;2.13;;
60588;SDS011;46421;48.610;9.334;2023-05-07T15:21:19;5.00;;;2.30;;
60588;SDS011;46421;48.610;9.334;2023-05-07T15:23:45;5.93;;;2.60;;
60588;SDS011;46421;48.610;9.334;2023-05-07T15:26:10;4.88;;;2.30;;
60588;SDS011;46421;48.610;9.334;2023-05-07T15:28:35;5.90;;;2.40;;
60588;SDS011;46421;48.610;9.334;2023-05-07T15:31:01;5.13;;;2.30;;
60588;SDS011;46421;48.610;9.334;2023-05-07T15:33:26;5.78;;;2.40;;
60588;SDS011;46421;48.610;9.334;2023-05-07T15:35:52;5.20;;;2.20;;
60588;SDS011;46421;48.610;9.334;2023-05-07T15:38:17;5.90;;;2.03;;
60588;SDS011;46421;48.610;9.334;2023-05-07T15:40:42;6.15;;;2.65;;